createdAt,value
2022-11-24T00:01:53.802Z,99.93
2022-11-24T00:04:20.316Z,100.00
2022-11-24T00:06:46.892Z,100.00
2022-11-24T00:09:13.434Z,100.00
2022-11-24T00:11:40.072Z,100.00
2022-11-24T00:14:06.932Z,100.00
2022-11-24T00:16:35.030Z,100.00
2022-11-24T00:19:02.762Z,100.00
2022-11-24T00:21:31.378Z,100.00
2022-11-24T00:23:58.399Z,100.00
2022-11-24T00:26:32.472Z,100.00
2022-11-24T00:29:00.109Z,100.00
2022-11-24T00:31:28.388Z,100.00
2022-11-24T00:33:56.288Z,100.00
2022-11-24T00:36:25.497Z,100.00
2022-11-24T00:38:56.186Z,100.00
2022-11-24T00:41:23.747Z,100.00
2022-11-24T00:43:50.602Z,100.00
2022-11-24T00:46:17.239Z,100.00
2022-11-24T00:48:44.546Z,100.00
2022-11-24T00:51:12.195Z,100.00
2022-11-24T00:53:38.761Z,100.00
2022-11-24T00:56:06.634Z,100.00
2022-11-24T00:58:33.835Z,100.00
2022-11-24T01:01:03.638Z,100.00
2022-11-24T01:03:30.441Z,100.00
2022-11-24T01:05:56.953Z,100.00
2022-11-24T01:08:23.494Z,100.00
2022-11-24T01:10:50.001Z,100.00
2022-11-24T01:13:16.722Z,100.00
2022-11-24T01:15:43.350Z,100.00
2022-11-24T01:18:10.069Z,100.00
2022-11-24T01:20:37.662Z,100.00
2022-11-24T01:23:04.198Z,100.00
2022-11-24T01:25:30.715Z,100.00
2022-11-24T01:27:57.392Z,100.00
2022-11-24T01:30:31.515Z,100.00
2022-11-24T01:32:58.039Z,100.00
2022-11-24T01:35:24.536Z,100.00
2022-11-24T01:37:51.089Z,100.00
2022-11-24T01:40:17.684Z,100.00
2022-11-24T01:42:48.070Z,100.00
2022-11-24T01:45:33.451Z,100.00
2022-11-24T01:48:01.485Z,100.00
2022-11-24T01:50:28.141Z,100.00
2022-11-24T01:52:55.575Z,100.00
2022-11-24T01:55:23.842Z,100.00
2022-11-24T01:57:54.099Z,100.00
2022-11-24T02:00:20.650Z,100.00
2022-11-24T02:02:47.248Z,100.00
2022-11-24T02:05:13.801Z,100.00
2022-11-24T02:07:40.468Z,100.00
2022-11-24T02:10:10.502Z,100.00
2022-11-24T02:12:37.962Z,100.00
2022-11-24T02:15:04.726Z,100.00
2022-11-24T02:17:31.290Z,100.00
2022-11-24T02:19:59.113Z,100.00
2022-11-24T02:22:34.840Z,100.00
2022-11-24T02:25:01.348Z,100.00
2022-11-24T02:27:27.957Z,100.00
2022-11-24T02:29:54.483Z,100.00
2022-11-24T02:32:21.525Z,100.00
2022-11-24T02:34:48.017Z,100.00
2022-11-24T02:37:14.441Z,100.00
2022-11-24T02:39:41.022Z,100.00
2022-11-24T02:42:10.561Z,100.00
2022-11-24T02:44:39.409Z,100.00
2022-11-24T02:47:07.397Z,100.00
2022-11-24T02:49:33.915Z,100.00
2022-11-24T02:52:00.841Z,100.00
2022-11-24T02:54:27.435Z,100.00
2022-11-24T02:56:54.010Z,100.00
2022-11-24T02:59:20.481Z,100.00
2022-11-24T03:01:47.311Z,100.00
2022-11-24T03:04:13.993Z,100.00
2022-11-24T03:06:40.544Z,100.00
2022-11-24T03:09:07.221Z,100.00
2022-11-24T03:11:33.747Z,100.00
2022-11-24T03:14:00.275Z,100.00
2022-11-24T03:16:26.827Z,100.00
2022-11-24T03:18:53.563Z,100.00
2022-11-24T03:21:20.308Z,100.00
2022-11-24T03:23:47.055Z,100.00
2022-11-24T03:26:14.774Z,100.00
2022-11-24T03:28:41.619Z,100.00
2022-11-24T03:31:08.412Z,100.00
2022-11-24T03:33:35.252Z,100.00
2022-11-24T03:36:01.846Z,100.00
2022-11-24T03:38:28.352Z,100.00
2022-11-24T03:40:54.899Z,100.00
2022-11-24T03:43:21.565Z,100.00
2022-11-24T03:45:48.790Z,100.00
2022-11-24T03:48:15.980Z,100.00
2022-11-24T03:50:42.497Z,100.00
2022-11-24T03:53:09.158Z,100.00
2022-11-24T03:55:35.842Z,100.00
2022-11-24T03:58:02.798Z,100.00
2022-11-24T04:00:29.318Z,100.00
2022-11-24T04:02:55.928Z,100.00
2022-11-24T04:05:22.685Z,100.00
2022-11-24T04:07:49.210Z,100.00
2022-11-24T04:10:15.762Z,100.00
2022-11-24T04:12:45.236Z,100.00
2022-11-24T04:15:12.503Z,100.00
2022-11-24T04:17:39.110Z,100.00
2022-11-24T04:20:06.173Z,100.00
2022-11-24T04:22:32.709Z,100.00
2022-11-24T04:24:59.308Z,100.00
2022-11-24T04:27:25.843Z,100.00
2022-11-24T04:29:52.733Z,100.00
2022-11-24T04:32:19.314Z,100.00
2022-11-24T04:34:45.828Z,100.00
2022-11-24T04:37:12.365Z,100.00
2022-11-24T04:39:38.889Z,100.00
2022-11-24T04:42:06.000Z,100.00
2022-11-24T04:44:32.864Z,100.00
2022-11-24T04:47:01.080Z,100.00
2022-11-24T04:49:27.695Z,100.00
2022-11-24T04:51:54.323Z,100.00
2022-11-24T04:54:20.808Z,100.00
2022-11-24T04:56:50.294Z,99.96
2022-11-24T04:59:16.859Z,100.00
2022-11-24T05:01:44.077Z,99.96
2022-11-24T05:04:11.820Z,99.90
2022-11-24T05:06:38.615Z,99.41
2022-11-24T05:09:06.160Z,99.43
2022-11-24T05:11:32.815Z,99.55
2022-11-24T05:13:59.367Z,99.17
2022-11-24T05:16:26.078Z,99.40
2022-11-24T05:18:52.643Z,99.45
2022-11-24T05:21:19.209Z,99.15
2022-11-24T05:23:45.832Z,99.29
2022-11-24T05:26:12.381Z,98.98
2022-11-24T05:28:38.823Z,99.18
2022-11-24T05:31:05.481Z,98.87
2022-11-24T05:33:33.766Z,98.79
2022-11-24T05:36:01.502Z,98.99
2022-11-24T05:38:31.179Z,98.83
2022-11-24T05:41:01.695Z,98.89
2022-11-24T05:43:28.270Z,98.87
2022-11-24T05:45:54.808Z,98.82
2022-11-24T05:48:21.347Z,98.61
2022-11-24T05:50:52.824Z,98.57
2022-11-24T05:53:19.340Z,98.67
2022-11-24T05:55:45.882Z,98.44
2022-11-24T05:58:12.396Z,98.31
2022-11-24T06:00:38.906Z,98.54
2022-11-24T06:03:05.566Z,98.21
2022-11-24T06:05:32.162Z,97.68
2022-11-24T06:07:59.158Z,97.80
2022-11-24T06:10:25.766Z,97.40
2022-11-24T06:12:52.521Z,96.63
2022-11-24T06:15:19.038Z,96.52
2022-11-24T06:17:52.222Z,96.50
2022-11-24T06:20:18.807Z,95.85
2022-11-24T06:22:45.368Z,96.29
2022-11-24T06:25:11.817Z,95.62
2022-11-24T06:27:38.302Z,95.54
2022-11-24T06:30:05.109Z,95.47
2022-11-24T06:32:31.765Z,95.36
2022-11-24T06:34:58.288Z,95.44
2022-11-24T06:37:24.942Z,95.58
2022-11-24T06:39:51.577Z,95.22
2022-11-24T06:42:19.225Z,95.35
2022-11-24T06:44:48.325Z,95.65
2022-11-24T06:47:15.541Z,95.60
2022-11-24T06:49:43.014Z,95.88
2022-11-24T06:52:09.588Z,95.69
2022-11-24T06:54:36.422Z,95.67
2022-11-24T06:57:03.299Z,95.50
2022-11-24T06:59:29.980Z,95.40
2022-11-24T07:01:56.482Z,95.43
2022-11-24T07:04:23.059Z,95.43
2022-11-24T07:06:49.673Z,95.36
2022-11-24T07:09:16.252Z,95.27
2022-11-24T07:11:42.994Z,95.27
2022-11-24T07:14:09.885Z,95.41
2022-11-24T07:16:36.415Z,95.46
2022-11-24T07:19:03.104Z,95.47
2022-11-24T07:21:30.838Z,95.05
2022-11-24T07:23:57.853Z,95.12
2022-11-24T07:26:24.733Z,94.98
2022-11-24T07:28:51.333Z,95.05
2022-11-24T07:31:19.277Z,95.04
2022-11-24T07:33:55.057Z,95.14
2022-11-24T07:36:22.089Z,95.09
2022-11-24T07:38:48.957Z,95.10
2022-11-24T07:41:16.306Z,95.07
2022-11-24T07:43:42.838Z,94.92
2022-11-24T07:46:11.505Z,95.19
2022-11-24T07:48:38.132Z,95.04
2022-11-24T07:51:04.973Z,95.24
2022-11-24T07:53:31.831Z,95.06
2022-11-24T07:56:02.264Z,94.99
2022-11-24T07:58:32.678Z,94.83
2022-11-24T08:01:00.149Z,94.78
2022-11-24T08:03:29.666Z,94.58
2022-11-24T08:08:43.174Z,94.34
2022-11-24T08:11:13.575Z,94.24
2022-11-24T08:13:40.140Z,94.18
2022-11-24T08:16:07.997Z,94.03
2022-11-24T08:18:35.249Z,94.07
2022-11-24T08:21:02.241Z,94.07
2022-11-24T08:23:28.844Z,94.03
2022-11-24T08:25:57.181Z,93.66
2022-11-24T08:28:23.953Z,93.71
2022-11-24T08:30:50.400Z,93.57
2022-11-24T08:33:16.915Z,93.82
2022-11-24T08:35:43.395Z,93.75
2022-11-24T08:38:09.886Z,94.03
2022-11-24T08:40:36.384Z,94.00
2022-11-24T08:43:02.895Z,94.23
2022-11-24T08:45:30.753Z,94.13
2022-11-24T08:47:57.856Z,94.79
2022-11-24T08:50:25.785Z,94.72
2022-11-24T08:52:53.432Z,94.93
2022-11-24T08:55:20.223Z,94.98
2022-11-24T08:57:46.977Z,95.01
2022-11-24T09:00:13.981Z,94.89
2022-11-24T09:02:40.540Z,95.16
2022-11-24T09:05:22.467Z,95.01
2022-11-24T09:07:53.689Z,94.76
2022-11-24T09:10:20.257Z,94.81
2022-11-24T09:12:47.090Z,95.07
2022-11-24T09:15:13.927Z,95.09
2022-11-24T09:17:40.516Z,95.12
2022-11-24T09:20:07.044Z,95.09
2022-11-24T09:22:33.662Z,95.21
2022-11-24T09:25:00.105Z,95.34
2022-11-24T09:27:27.184Z,95.36
2022-11-24T09:29:54.067Z,95.51
2022-11-24T09:32:20.560Z,95.29
2022-11-24T09:34:47.097Z,95.43
2022-11-24T09:37:13.594Z,94.92
2022-11-24T09:39:40.113Z,94.13
2022-11-24T09:42:06.643Z,93.30
2022-11-24T09:44:59.698Z,92.95
2022-11-24T09:47:32.403Z,92.67
2022-11-24T09:50:00.922Z,92.30
2022-11-24T09:52:43.652Z,92.01
2022-11-24T09:55:28.768Z,91.14
2022-11-24T09:58:13.674Z,90.99
2022-11-24T10:00:41.245Z,91.18
2022-11-24T10:03:13.192Z,91.07
2022-11-24T10:05:39.857Z,91.38
2022-11-24T10:08:06.415Z,91.79
2022-11-24T10:10:40.985Z,92.04
2022-11-24T10:13:07.455Z,91.86
2022-11-24T10:15:52.647Z,91.71
2022-11-24T10:18:28.400Z,91.52
2022-11-24T10:20:58.401Z,91.18
2022-11-24T10:23:33.511Z,91.09
2022-11-24T10:26:06.117Z,91.06
2022-11-24T10:28:45.433Z,91.14
2022-11-24T10:31:18.989Z,91.59
2022-11-24T10:33:46.516Z,91.35
2022-11-24T10:36:17.428Z,91.42
2022-11-24T10:38:48.841Z,91.56
2022-11-24T10:41:20.311Z,91.38
2022-11-24T10:43:47.904Z,91.23
2022-11-24T10:46:18.515Z,91.42
2022-11-24T10:48:51.237Z,91.15
2022-11-24T10:51:39.947Z,91.32
2022-11-24T10:54:17.342Z,91.15
2022-11-24T10:56:45.033Z,91.16
2022-11-24T10:59:30.413Z,91.40
2022-11-24T11:01:57.184Z,91.43
2022-11-24T11:04:28.561Z,91.44
2022-11-24T11:07:30.807Z,91.53
2022-11-24T11:10:17.283Z,91.66
2022-11-24T11:12:45.034Z,91.80
2022-11-24T11:15:29.935Z,91.63
2022-11-24T11:18:01.145Z,91.33
2022-11-24T11:20:29.664Z,91.05
2022-11-24T11:22:56.635Z,89.86
2022-11-24T11:25:24.966Z,89.18
2022-11-24T11:27:51.443Z,89.22
2022-11-24T11:35:51.215Z,88.91
2022-11-24T11:38:18.030Z,88.67
2022-11-24T11:40:44.831Z,88.66
2022-11-24T11:43:39.383Z,88.67
2022-11-24T11:46:14.335Z,88.65
2022-11-24T11:48:44.895Z,89.23
2022-11-24T11:51:24.715Z,89.39
2022-11-24T11:54:16.742Z,89.59
2022-11-24T11:56:45.330Z,89.88
2022-11-24T11:59:21.103Z,90.29
2022-11-24T12:01:50.699Z,90.00
2022-11-24T12:04:35.992Z,89.71
2022-11-24T12:07:02.727Z,90.10
2022-11-24T12:09:47.296Z,89.98
2022-11-24T12:12:32.688Z,89.68
2022-11-24T12:14:59.143Z,89.97
2022-11-24T12:17:34.956Z,90.03
2022-11-24T12:20:10.821Z,89.00
2022-11-24T12:22:37.322Z,88.45
2022-11-24T12:25:22.861Z,88.42
2022-11-24T12:28:12.714Z,88.61
2022-11-24T12:31:04.579Z,89.04
2022-11-24T12:33:40.087Z,88.62
2022-11-24T12:36:09.594Z,88.68
2022-11-24T12:38:54.575Z,88.68
2022-11-24T12:41:41.779Z,88.91
2022-11-24T12:44:22.911Z,88.83
2022-11-24T12:47:00.335Z,89.08
2022-11-24T12:49:46.138Z,89.20
2022-11-24T12:52:21.728Z,89.27
2022-11-24T12:54:48.215Z,89.02
2022-11-24T12:57:14.723Z,89.29
2022-11-24T12:59:45.410Z,89.36
2022-11-24T13:02:21.428Z,89.34
2022-11-24T13:04:55.238Z,89.59
2022-11-24T13:07:28.034Z,89.63
2022-11-24T13:13:14.674Z,90.00
2022-11-24T13:18:57.075Z,90.22
2022-11-24T13:21:34.324Z,90.19
2022-11-24T13:24:05.715Z,90.78
2022-11-24T13:26:47.456Z,90.58
2022-11-24T13:29:32.837Z,90.73
2022-11-24T13:32:02.363Z,90.82
2022-11-24T13:34:41.458Z,90.85
2022-11-24T13:37:28.899Z,90.75
2022-11-24T13:40:14.377Z,91.16
2022-11-24T13:42:56.498Z,91.18
2022-11-24T13:45:50.618Z,91.00
2022-11-24T13:48:20.850Z,91.00
2022-11-24T13:50:51.096Z,91.25
2022-11-24T13:53:29.055Z,91.29
2022-11-24T13:56:13.888Z,91.26
2022-11-24T13:58:40.492Z,91.17
2022-11-24T14:01:11.555Z,91.35
2022-11-24T14:03:55.379Z,91.28
2022-11-24T14:06:39.826Z,91.23
2022-11-24T14:09:18.743Z,91.45
2022-11-24T14:11:54.657Z,91.25
2022-11-24T14:14:21.774Z,91.65
2022-11-24T14:16:48.336Z,91.82
2022-11-24T14:19:18.331Z,91.67
2022-11-24T14:21:45.268Z,92.45
2022-11-24T14:24:11.846Z,92.19
2022-11-24T14:26:39.728Z,91.88
2022-11-24T14:29:07.720Z,91.95
2022-11-24T14:31:34.379Z,92.31
2022-11-24T14:34:13.348Z,92.24
2022-11-24T14:36:39.988Z,92.43
2022-11-24T14:39:09.659Z,92.52
2022-11-24T14:41:36.222Z,92.36
2022-11-24T14:44:05.594Z,92.50
2022-11-24T14:46:33.639Z,92.61
2022-11-24T14:49:00.278Z,93.02
2022-11-24T14:51:32.388Z,93.42
2022-11-24T14:54:01.588Z,93.44
2022-11-24T14:56:38.039Z,93.54
2022-11-24T14:59:20.193Z,93.61
2022-11-24T15:01:46.806Z,93.61
2022-11-24T15:07:17.074Z,93.53
2022-11-24T15:09:59.654Z,93.67
2022-11-24T15:12:34.935Z,93.74
2022-11-24T15:15:01.526Z,93.71
2022-11-24T15:17:28.850Z,93.86
2022-11-24T15:20:15.593Z,93.79
2022-11-24T15:22:43.680Z,93.76
2022-11-24T15:25:25.125Z,93.75
2022-11-24T15:27:51.928Z,93.87
2022-11-24T15:30:18.424Z,93.99
2022-11-24T15:32:55.179Z,94.16
2022-11-24T15:35:22.852Z,94.13
2022-11-24T15:37:50.094Z,94.29
2022-11-24T15:40:16.683Z,94.24
2022-11-24T15:42:45.969Z,94.17
2022-11-24T15:45:12.437Z,94.58
2022-11-24T15:47:39.032Z,94.71
2022-11-24T15:50:05.814Z,94.78
2022-11-24T15:52:32.398Z,94.81
2022-11-24T15:54:58.952Z,94.77
2022-11-24T15:57:27.153Z,95.06
2022-11-24T15:59:53.674Z,94.91
2022-11-24T16:02:21.972Z,94.94
2022-11-24T16:04:49.218Z,95.12
2022-11-24T16:07:15.965Z,95.09
2022-11-24T16:09:42.603Z,95.30
2022-11-24T16:12:09.794Z,95.71
2022-11-24T16:14:36.989Z,95.66
2022-11-24T16:17:03.972Z,96.09
2022-11-24T16:19:30.557Z,95.96
2022-11-24T16:21:57.075Z,95.98
2022-11-24T16:24:23.648Z,96.22
2022-11-24T16:26:50.193Z,96.41
2022-11-24T16:29:16.922Z,96.59
2022-11-24T16:31:44.600Z,96.64
2022-11-24T16:34:11.137Z,96.38
2022-11-24T16:36:37.568Z,96.83
2022-11-24T16:39:04.066Z,96.46
2022-11-24T16:41:30.572Z,96.74
2022-11-24T16:43:57.079Z,96.73
2022-11-24T16:46:24.701Z,96.82
2022-11-24T16:48:52.794Z,96.52
2022-11-24T16:51:20.493Z,96.76
2022-11-24T16:53:47.080Z,96.74
2022-11-24T16:56:14.862Z,96.66
2022-11-24T16:58:41.371Z,96.86
2022-11-24T17:01:10.505Z,97.15
2022-11-24T17:03:37.559Z,97.23
2022-11-24T17:06:05.317Z,97.11
2022-11-24T17:08:32.631Z,96.98
2022-11-24T17:11:04.678Z,96.93
2022-11-24T17:13:31.929Z,96.73
2022-11-24T17:15:58.476Z,96.83
2022-11-24T17:18:25.630Z,96.84
2022-11-24T17:20:54.425Z,96.86
2022-11-24T17:23:20.987Z,96.71
2022-11-24T17:25:48.774Z,96.81
2022-11-24T17:28:15.258Z,96.77
2022-11-24T17:30:41.874Z,96.68
2022-11-24T17:33:08.453Z,96.55
2022-11-24T17:35:35.165Z,96.50
2022-11-24T17:38:01.841Z,96.49
2022-11-24T17:40:29.590Z,96.63
2022-11-24T17:43:00.353Z,96.32
2022-11-24T17:45:27.352Z,96.35
2022-11-24T17:47:54.110Z,96.55
2022-11-24T17:50:25.401Z,96.64
2022-11-24T17:52:52.559Z,96.36
2022-11-24T17:55:19.047Z,96.64
2022-11-24T17:57:45.512Z,96.64
2022-11-24T18:00:12.316Z,96.92
2022-11-24T18:02:39.018Z,97.02
2022-11-24T18:05:05.643Z,96.89
2022-11-24T18:07:32.164Z,97.25
2022-11-24T18:09:58.720Z,97.66
2022-11-24T18:12:25.499Z,97.85
2022-11-24T18:14:52.274Z,97.61
2022-11-24T18:17:18.824Z,97.51
2022-11-24T18:19:45.756Z,97.71
2022-11-24T18:22:12.193Z,97.48
2022-11-24T18:24:38.899Z,97.55
2022-11-24T18:27:05.686Z,97.69
2022-11-24T18:29:32.202Z,97.52
2022-11-24T18:31:58.736Z,98.12
2022-11-24T18:34:25.314Z,98.06
2022-11-24T18:36:52.618Z,98.30
2022-11-24T18:39:19.456Z,98.34
2022-11-24T18:41:46.265Z,98.41
2022-11-24T18:44:12.853Z,98.54
2022-11-24T18:46:39.507Z,98.18
2022-11-24T18:49:07.288Z,98.32
2022-11-24T18:51:34.047Z,98.63
2022-11-24T18:54:02.285Z,98.46
2022-11-24T18:56:29.256Z,98.35
2022-11-24T18:58:56.195Z,98.03
2022-11-24T19:01:27.673Z,98.11
2022-11-24T19:03:55.592Z,98.07
2022-11-24T19:06:32.368Z,97.93
2022-11-24T19:09:25.824Z,98.24
2022-11-24T19:11:52.416Z,98.15
2022-11-24T19:14:19.292Z,98.25
2022-11-24T19:16:47.905Z,98.28
2022-11-24T19:19:14.817Z,98.31
2022-11-24T19:21:41.384Z,98.23
2022-11-24T19:24:10.225Z,98.19
2022-11-24T19:26:37.055Z,98.30
2022-11-24T19:29:04.441Z,98.56
2022-11-24T19:31:31.151Z,98.26
2022-11-24T19:33:59.969Z,98.48
2022-11-24T19:36:26.488Z,98.39
2022-11-24T19:38:54.352Z,98.31
2022-11-24T19:41:22.009Z,98.49
2022-11-24T19:43:48.984Z,98.52
2022-11-24T19:46:19.243Z,98.30
2022-11-24T19:48:49.241Z,98.36
2022-11-24T19:51:20.467Z,98.40
2022-11-24T19:53:47.590Z,98.28
2022-11-24T19:56:15.481Z,98.17
2022-11-24T19:58:42.270Z,98.14
2022-11-24T20:01:29.213Z,98.06
2022-11-24T20:03:55.738Z,98.23
2022-11-24T20:06:22.225Z,98.35
2022-11-24T20:08:48.813Z,98.28
2022-11-24T20:11:16.481Z,98.26
2022-11-24T20:13:43.937Z,98.59
2022-11-24T20:16:11.806Z,98.50
2022-11-24T20:18:42.278Z,98.57
2022-11-24T20:21:10.032Z,98.37
2022-11-24T20:23:36.803Z,98.48
2022-11-24T20:26:12.677Z,98.29
2022-11-24T20:28:39.745Z,98.18
2022-11-24T20:31:07.820Z,98.03
2022-11-24T20:33:36.819Z,98.38
2022-11-24T20:36:13.768Z,98.39
2022-11-24T20:38:43.584Z,98.08
2022-11-24T20:41:14.221Z,98.26
2022-11-24T20:43:41.305Z,98.13
2022-11-24T20:46:09.298Z,97.96
2022-11-24T20:48:36.529Z,97.88
2022-11-24T20:51:07.271Z,97.68
2022-11-24T20:53:34.345Z,97.59
2022-11-24T20:56:21.145Z,97.71
2022-11-24T20:58:48.294Z,97.44
2022-11-24T21:01:16.031Z,97.58
2022-11-24T21:03:43.655Z,97.62
2022-11-24T21:06:10.741Z,97.42
2022-11-24T21:08:38.305Z,97.44
2022-11-24T21:11:05.555Z,97.24
2022-11-24T21:13:33.056Z,97.34
2022-11-24T21:15:59.663Z,97.21
2022-11-24T21:18:26.390Z,97.51
2022-11-24T21:20:53.002Z,97.49
2022-11-24T21:23:20.678Z,97.54
2022-11-24T21:25:47.107Z,97.54
2022-11-24T21:28:13.693Z,97.55
2022-11-24T21:30:43.263Z,97.49
2022-11-24T21:33:09.820Z,97.42
2022-11-24T21:35:36.825Z,97.43
2022-11-24T21:38:03.732Z,97.39
2022-11-24T21:40:30.749Z,97.51
2022-11-24T21:42:58.542Z,97.52
2022-11-24T21:45:25.501Z,97.51
2022-11-24T21:47:52.061Z,97.58
2022-11-24T21:50:18.567Z,97.51
2022-11-24T21:52:45.070Z,97.43
2022-11-24T21:55:11.505Z,97.40
2022-11-24T21:57:38.698Z,97.52
2022-11-24T22:00:05.702Z,97.43
2022-11-24T22:02:32.271Z,97.60
2022-11-24T22:04:58.805Z,97.42
2022-11-24T22:07:25.354Z,97.50
2022-11-24T22:09:51.849Z,97.51
2022-11-24T22:12:18.398Z,97.31
2022-11-24T22:14:45.943Z,97.21
2022-11-24T22:17:14.665Z,97.20
2022-11-24T22:19:41.163Z,97.07
2022-11-24T22:22:07.638Z,97.03
2022-11-24T22:24:34.091Z,97.08
2022-11-24T22:27:02.890Z,96.98
2022-11-24T22:29:29.452Z,97.21
2022-11-24T22:31:55.969Z,97.23
2022-11-24T22:34:22.492Z,97.08
2022-11-24T22:36:49.040Z,97.25
2022-11-24T22:39:15.499Z,97.28
2022-11-24T22:41:41.988Z,97.14
2022-11-24T22:44:08.557Z,97.11
2022-11-24T22:46:35.031Z,97.07
2022-11-24T22:49:01.957Z,97.19
2022-11-24T22:51:29.843Z,97.26
2022-11-24T22:53:57.515Z,97.35
2022-11-24T22:56:24.819Z,97.12
2022-11-24T22:58:51.456Z,96.93
2022-11-24T23:01:19.067Z,96.64
2022-11-24T23:03:45.720Z,96.61
2022-11-24T23:06:13.722Z,96.60
2022-11-24T23:08:40.775Z,96.67
2022-11-24T23:11:17.756Z,96.43
2022-11-24T23:13:44.513Z,96.46
2022-11-24T23:16:12.626Z,96.63
2022-11-24T23:18:39.423Z,96.72
2022-11-24T23:21:11.216Z,96.68
2022-11-24T23:23:37.711Z,96.61
2022-11-24T23:26:05.559Z,96.52
2022-11-24T23:28:32.333Z,96.78
2022-11-24T23:31:06.128Z,96.75
2022-11-24T23:33:32.663Z,96.75
2022-11-24T23:36:03.244Z,96.89
2022-11-24T23:38:34.525Z,96.91
2022-11-24T23:41:04.556Z,96.95
2022-11-24T23:43:31.816Z,96.95
2022-11-24T23:46:24.450Z,96.93
2022-11-24T23:48:51.901Z,97.13
2022-11-24T23:51:22.812Z,97.03
2022-11-24T23:53:49.992Z,96.98
2022-11-24T23:56:23.823Z,97.11
2022-11-24T23:58:50.452Z,97.30
